Tiempo atmosférico en la estación meteorológica de Arcos de Jalón, Soria (863 m.)



Fecha
DESCASC
Temp. máxima en grados centígrados (hora)
DESCASC
Temp. mínima en grados centígrados (hora)
DESCASC
Temp. media en grados centígrados
DESCASC
Racha de viento máxima en m/sg (hora)
DESCASC
Velocidad máxima media en intervalos de 10 minutos(hora)
DESCASC
Precipitaciones diarias en mm
DESCASC
Precipitaciones de 00:00 a 06:00 en mm
DESCASC
Precipitaciones de 06:00 a 12:00 en mm
DESCASC
Precipitaciones de 12:00 a 18:00 en mm
DESCASC
Precipitaciones de 18:00 a 24:00 en mm
DESCASC
18-08-2019 34.8 (17:30) 17.6 (07:30) 26.2 17.5 (14:30) 11.39 (15:30) 0 0 0 0 0
17-08-2019 36.1 (17:40) 16.8 (07:30) 26.4 12.22 (18:00) 7.78 (18:00) 0 0 0 0 0
16-08-2019 35 (17:20) 14.8 (07:10) 24.9 12.22 (16:00) 6.11 (14:50) 0 0 0 0 0
15-08-2019 32.8 (17:30) 12.7 (00:00) 22.7 11.11 (20:00) 6.39 (20:00) 0 0 0 0 0
14-08-2019 32.1 (17:30) 10.2 (00:00) 21.1 9.44 (15:40) 5.28 (17:40) 0 0 0 0 0
13-08-2019 27.8 (17:00) 10 (00:00) 18.9 9.44 (17:10) 4.72 (18:00) 0 0 0 0 0
12-08-2019 24.5 (16:40) 10.7 (00:00) 17.6 10 (20:40) 5.83 (20:30) 0 0 0 0 0
11-08-2019 29.9 (14:30) 16.3 (00:00) 23.1 14.17 (16:50) 8.89 (15:20) 0 0 0 0 0
10-08-2019 32.1 (16:00) 15 (00:00) 23.5 11.11 (17:30) 7.22 (17:30) 0 0 0 0 0
09-08-2019 32.7 (17:40) 18.2 (00:00) 25.5 16.67 (14:30) 10.83 (12:20) 0 0 0 0 0
08-08-2019 33.1 (16:30) 16.2 (00:00) 24.6 14.17 (17:40) 9.44 (18:00) 0 0 0 0 0
07-08-2019 29 (12:10) 19.2 (00:00) 24.1 11.39 (18:40) 8.33 (20:10) 0 0 0 0 0
06-08-2019 35.2 (16:40) 17.6 (00:00) 26.4 13.89 (14:30) 8.61 (12:40) 0 0 0 0 0
05-08-2019 35.5 (17:10) 16.9 (00:00) 26.2 13.61 (15:20) 8.33 (13:00) 0 0 0 0 0
04-08-2019 35.3 (17:30) 16.2 (00:00) 25.8 13.89 (16:10) 8.06 (12:40) 0 0 0 0 0
03-08-2019 35.4 (17:50) 15.1 (00:00) 25.3 13.61 (16:50) 7.22 (20:10) 0 0 0 0 0
02-08-2019 33.8 (17:20) 15 (00:00) 24.4 9.72 (20:30) 5.83 (20:20) 0 0 0 0 0
01-08-2019 33.4 (17:30) 17.1 (00:00) 25.3 12.22 (18:30) 6.67 (17:40) 0 0 0 0 0
31-07-2019 29.9 (16:50) 11.1 (00:00) 20.5 9.17 (19:40) 6.11 (18:20) 0 0 0 0 0
30-07-2019 28.4 (17:00) 11.9 (00:00) 20.1 9.17 (20:00) 5.83 (20:00) 0 0 0 0 0
29-07-2019 32.4 (17:40) 11.9 (00:00) 22.2 15.28 (16:40) 9.17 (16:30) 0 0 0 0 0
28-07-2019 28.5 (18:10) 9.5 (00:00) 19 6.94 (18:50) 4.72 (21:00) 0 0 0 0 0
27-07-2019 25.6 (14:50) 15 (00:00) 20.3 15 (18:10) 10 (17:20) 0 0 0 0 0
26-07-2019 29.1 (17:20) 19.8 (00:00) 24.4 20.83 (13:50) 6.11 (17:50) 1.4 0 0 1.4 0
25-07-2019 35.8 (16:30) 21.8 (00:00) 28.8 13.61 (14:20) 7.78 (17:10) 0 0 0 0 0
24-07-2019 37 (16:00) 19.3 (00:00) 28.1 10.83 (14:20) 6.11 (20:20) 0 0 0 0 0
23-07-2019 -- (--) -- (--) -- -- (--) -- (--) -- -- -- 0 0
22-07-2019 -- (--) -- (--) -- -- (--) -- (--) -- -- -- -- --
21-07-2019 -- (--) -- (--) -- -- (--) -- (--) -- 0 0 1.4 --

Gráficas

Temp. máximas Temp. mínimas Temp. medias Precipitaciones Rachas de viento máximas Velocidades máximas media en intervalos de 10 minutos

Datos horarios

Fecha y hora oficial Temperatura (ºC) Velocidad del viento (km/h) Dirección del viento Racha (km/h) Dirección de racha Precipitación (mm) Presión (hPa) Tendencia (hPa) Humedad (%)
2019-08-19 23:00:00 19.7 12 Norte 21 Nordeste 0 -- -- 61
2019-08-19 22:00:00 20.2 11 Nordeste 25 Nordeste 0 -- -- 56
2019-08-19 21:00:00 21 12 Nordeste 31 Nordeste 0 -- -- 54
2019-08-19 20:00:00 21.8 15 Nordeste 36 Nordeste 0 -- -- 50
2019-08-19 19:00:00 23.8 20 Nordeste 39 Nordeste 0 -- -- 45
2019-08-19 18:00:00 26.1 20 Nordeste 31 Nordeste 0 -- -- 41
2019-08-19 17:00:00 26.8 14 Nordeste 27 Nordeste 0 -- -- 40
2019-08-19 16:00:00 25.9 13 Nordeste 28 Nordeste 0 -- -- 43
2019-08-19 15:00:00 25.5 14 Nordeste 24 Nordeste 0 -- -- 45
2019-08-19 14:00:00 24.5 10 Nordeste 23 Nordeste 0 -- -- 48
2019-08-19 13:00:00 23.8 13 Norte 24 Nordeste 0 -- -- 51
2019-08-19 12:00:00 22.5 10 Nordeste 24 Nordeste 0 -- -- 55
2019-08-19 11:00:00 21.3 10 Nordeste 22 Este 0 -- -- 59
2019-08-19 10:00:00 19.2 10 Nordeste 18 Nordeste 0 -- -- 66
2019-08-19 09:00:00 17.6 9 Norte 15 Nordeste 0 -- -- 73
2019-08-19 08:00:00 17.1 9 Nordeste 17 Nordeste 0 -- -- 76
2019-08-19 07:00:00 17.7 7 Norte 13 Norte 0 -- -- 74
2019-08-19 06:00:00 18.1 4 Nordeste 9 Nordeste 0 -- -- 68
2019-08-19 05:00:00 18.5 5 Norte 13 Norte 0 -- -- 69
2019-08-19 04:00:00 19.3 5 Nordeste 10 Noroeste 0 -- -- 65
2019-08-19 03:00:00 20 3 Nordeste 11 Noroeste 0 -- -- 58
2019-08-19 02:00:00 20.3 2 Nordeste 9 Sudoeste 0 -- -- 45
2019-08-19 01:00:00 20.6 8 Sudoeste 12 Sudoeste 0 -- -- 39
2019-08-19 00:00:00 21.3 5 Sudoeste 17 Oeste 0 -- -- 33
2019-08-18 23:00:00 23.2 10 Oeste 12 Oeste 0 -- -- 30
2019-08-18 22:00:00 24.5 4 Sudoeste 19 Sudoeste 0 -- -- 27
2019-08-18 21:00:00 27.9 10 Oeste 38 Oeste 0 -- -- 23
2019-08-18 20:00:00 31.5 26 Oeste 39 Sur 0 -- -- 20
2019-08-18 19:00:00 33.5 28 Sudoeste 51 Sur 0 -- -- 12
2019-08-18 18:00:00 34.5 32 Sur 59 Sudoeste 0 -- -- 11
2019-08-18 17:00:00 34.1 33 Sur 55 Sur 0 -- -- 11
2019-08-18 16:00:00 33.5 30 Sur 56 Sudoeste 0 -- -- 15
2019-08-18 15:00:00 34 36 Sudoeste 63 Sur 0 -- -- 13
2019-08-18 14:00:00 34.1 33 Sudoeste 54 Sur 0 -- -- 16
2019-08-18 13:00:00 33 27 Sur 49 Sur 0 -- -- 18
2019-08-18 12:00:00 32.1 27 Sur 45 Sur 0 -- -- 21
2019-08-18 11:00:00 29.3 13 Sudoeste 26 Sudoeste 0 -- -- 28
2019-08-18 10:00:00 26.5 10 Sudoeste 24 Sudoeste 0 -- -- 35
2019-08-18 09:00:00 23.2 11 Sudoeste 17 Sudoeste 0 -- -- 38
2019-08-18 08:00:00 17.9 17 Oeste 21 Oeste 0 -- -- 41
2019-08-18 07:00:00 17.9 15 Oeste 23 Oeste 0 -- -- 40
2019-08-18 06:00:00 19.1 18 Sudoeste 26 Oeste 0 -- -- 38
2019-08-18 05:00:00 19.5 21 Oeste 27 Oeste 0 -- -- 35
2019-08-18 04:00:00 19.5 18 Sudoeste 24 Oeste 0 -- -- 35
2019-08-18 03:00:00 20.2 15 Oeste 21 Sudoeste 0 -- -- 34
2019-08-18 02:00:00 21.5 13 Sudoeste 20 Oeste 0 -- -- 30
2019-08-18 01:00:00 24 12 Oeste 21 Oeste 0 -- -- 26
2019-08-18 00:00:00 24.1 15 Oeste 22 Sudoeste 0 -- -- 26
2019-08-17 23:00:00 26.4 14 Sudoeste 24 Oeste 0 -- -- 25
2019-08-17 22:00:00 27.7 12 Sudoeste 19 Sudoeste 0 -- -- 23
2019-08-17 21:00:00 31.6 16 Sur 32 Sur 0 -- -- 19
2019-08-17 20:00:00 33.4 23 Sur 41 Sur 0 -- -- 18
2019-08-17 19:00:00 34.6 21 Sudoeste 40 Sudoeste 0 -- -- 17
2019-08-17 18:00:00 35.7 28 Sur 44 Sur 0 -- -- 16
2019-08-17 17:00:00 35.9 25 Sudoeste 40 Sur 0 -- -- 15
2019-08-17 16:00:00 35.6 22 Sur 44 Sudoeste 0 -- -- 18
2019-08-17 15:00:00 35.1 18 Sudoeste 37 Sudoeste 0 -- -- 23
2019-08-17 14:00:00 34.1 8 Sur 31 Sur 0 -- -- 23
2019-08-17 13:00:00 32.1 7 Sudeste 14 Sudeste 0 -- -- 25
2019-08-17 12:00:00 30.1 5 Nordeste 13 Nordeste 0 -- -- 28
2019-08-17 11:00:00 28.2 5 Noroeste 10 Norte 0 -- -- 31
2019-08-17 10:00:00 25.5 3 Sudoeste 13 Oeste 0 -- -- 35
2019-08-17 09:00:00 21 10 Oeste 18 Oeste 0 -- -- 47
2019-08-17 08:00:00 17.3 11 Sudoeste 18 Oeste 0 -- -- 58
2019-08-17 07:00:00 17.6 12 Sudoeste 17 Sudoeste 0 -- -- 57
2019-08-17 06:00:00 18.6 10 Sudoeste 23 Sudoeste 0 -- -- 54
2019-08-17 05:00:00 18.1 10 Sudoeste 15 Oeste 0 -- -- 55
2019-08-17 04:00:00 18.9 10 Sudoeste 18 Sudoeste 0 -- -- 53
2019-08-17 03:00:00 19.4 11 Sudoeste 17 Sudoeste 0 -- -- 52
2019-08-17 02:00:00 19.9 10 Sudoeste 13 Sudoeste 0 -- -- 49
2019-08-17 01:00:00 21.1 3 Sudoeste 6 Sur 0 -- -- 45
2019-08-17 00:00:00 23.8 0 Calma 6 Noroeste 0 -- -- 40
2019-08-16 23:00:00 26.2 2 Sudoeste 16 Nordeste 0 -- -- 36
2019-08-16 22:00:00 28.4 8 Norte 19 Nordeste 0 -- -- 33
2019-08-16 21:00:00 30.9 9 Sudoeste 22 Sur 0 -- -- 29
2019-08-16 20:00:00 32.9 12 Sur 23 Sudoeste 0 -- -- 27
2019-08-16 19:00:00 33.8 7 Sudoeste 30 Sudoeste 0 -- -- 25
2019-08-16 18:00:00 34.3 14 Sudoeste 31 Sudoeste 0 -- -- 24
2019-08-16 17:00:00 34.8 12 Sudoeste 30 Sudoeste 0 -- -- 23
2019-08-16 16:00:00 34.4 21 Sudoeste 44 Sur 0 -- -- 24
2019-08-16 15:00:00 34 15 Sur 34 Sur 0 -- -- 26
2019-08-16 14:00:00 30.9 7 Nordeste 18 Este 0 -- -- 34
2019-08-16 13:00:00 28.8 9 Nordeste 17 Nordeste 0 -- -- 38
2019-08-16 12:00:00 26.2 10 Nordeste 17 Este 0 -- -- 41
2019-08-16 11:00:00 23.7 4 Nordeste 12 Este 0 -- -- 46
2019-08-16 10:00:00 20.9 6 Nordeste 11 Este 0 -- -- 52
2019-08-16 09:00:00 18.8 3 Nordeste 5 Nordeste 0 -- -- 58
2019-08-16 08:00:00 15.6 2 Oeste 13 Sudoeste 0 -- -- 68
2019-08-16 07:00:00 14.9 9 Sudoeste 14 Sudoeste 0 -- -- 69
2019-08-16 06:00:00 15.2 8 Sudoeste 10 Sudoeste 0 -- -- 67
2019-08-16 05:00:00 15.3 7 Sudoeste 10 Sudoeste 0 -- -- 67
2019-08-16 04:00:00 15.7 6 Sudoeste 10 Sudoeste 0 -- -- 64
2019-08-16 03:00:00 16.8 0 Calma 4 Sudoeste 0 -- -- 60
2019-08-16 02:00:00 17.7 3 Sudoeste 8 Sur 0 -- -- 59
2019-08-16 01:00:00 19.1 3 Sur 7 Norte 0 -- -- 54
2019-08-16 00:00:00 20.7 4 Norte 14 Norte 0 -- -- 52
2019-08-15 23:00:00 21.2 9 Norte 25 Norte 0 -- -- 50
2019-08-15 22:00:00 22.5 15 Norte 28 Noroeste 0 -- -- 47
2019-08-15 21:00:00 24.8 18 Noroeste 36 Nordeste 0 -- -- 42
2019-08-15 20:00:00 29.1 23 Norte 40 Norte 0 -- -- 37
2019-08-15 19:00:00 32.1 10 Oeste 31 Sudoeste 0 -- -- 23
2019-08-15 18:00:00 32.8 16 Oeste 30 Sudoeste 0 -- -- 23
2019-08-15 17:00:00 32.3 11 Sudoeste 31 Oeste 0 -- -- 26
2019-08-15 16:00:00 30.7 9 Norte 23 Noroeste 0 -- -- 33
2019-08-15 15:00:00 29.9 7 Oeste 19 Nordeste 0 -- -- 35
2019-08-15 14:00:00 27.9 7 Noroeste 16 Norte 0 -- -- 39
2019-08-15 13:00:00 26.3 5 Este 15 Norte 0 -- -- 44
2019-08-15 12:00:00 23.9 8 Nordeste 18 Norte 0 -- -- 50
2019-08-15 11:00:00 22.1 7 Nordeste 21 Nordeste 0 -- -- 54
2019-08-15 10:00:00 20 11 Norte 20 Norte 0 -- -- 59
2019-08-15 09:00:00 17.7 2 Sudeste 5 Sur 0 -- -- 61
2019-08-15 08:00:00 13.3 2 Sudoeste 6 Sur 0 -- -- 70
2019-08-15 07:00:00 12.8 2 Sudoeste 6 Sur 0 -- -- 67
2019-08-15 06:00:00 13.6 0 Calma 4 Sudoeste 0 -- -- 65
2019-08-15 05:00:00 14 2 Sudoeste 6 Sur 0 -- -- 62
2019-08-15 04:00:00 14.9 0 Calma 5 Sur 0 -- -- 56
2019-08-15 03:00:00 15.7 0 Calma 4 Sur 0 -- -- 53
2019-08-15 02:00:00 16.7 0 Calma 5 Sur 0 -- -- 48
2019-08-15 01:00:00 18.3 0 Calma 3 Sudoeste 0 -- -- 45
2019-08-15 00:00:00 20.3 0 Calma 5 Nordeste 0 -- -- 37
2019-08-14 23:00:00 24 3 Nordeste 19 Nordeste 0 -- -- 33
2019-08-14 22:00:00 24 4 Norte 13 Sudoeste 0 -- -- 29
2019-08-14 21:00:00 27.9 6 Oeste 21 Oeste 0 -- -- 23
2019-08-14 20:00:00 29.9 14 Oeste 27 Oeste 0 -- -- 21
2019-08-14 19:00:00 31.1 13 Oeste 30 Oeste 0 -- -- 21
2019-08-14 18:00:00 31.9 14 Oeste 31 Oeste 0 -- -- 21
2019-08-14 17:00:00 31.3 6 Sur 32 Oeste 0 -- -- 22
2019-08-14 16:00:00 31 13 Sudoeste 34 Sudoeste 0 -- -- 23
2019-08-14 15:00:00 29.8 8 Oeste 27 Oeste 0 -- -- 24
2019-08-14 14:00:00 28.3 12 Norte 25 Noroeste 0 -- -- 25
2019-08-14 13:00:00 26.9 9 Oeste 22 Oeste 0 -- -- 26
2019-08-14 12:00:00 24.8 6 Nordeste 13 Este 0 -- -- 32
2019-08-14 11:00:00 21.2 6 Nordeste 12 Norte 0 -- -- 42
2019-08-14 10:00:00 18.4 8 Nordeste 12 Nordeste 0 -- -- 48
2019-08-14 09:00:00 14.8 8 Oeste 13 Sudoeste 0 -- -- 55
2019-08-14 08:00:00 11 9 Sudoeste 13 Sudoeste 0 -- -- 67
2019-08-14 07:00:00 10.9 10 Sudoeste 19 Sudoeste 0 -- -- 66
2019-08-14 06:00:00 11.5 12 Oeste 15 Sudoeste 0 -- -- 66
2019-08-14 05:00:00 12 12 Sudoeste 15 Sudoeste 0 -- -- 64
2019-08-14 04:00:00 12.3 10 Sudoeste 15 Sudoeste 0 -- -- 64
2019-08-14 03:00:00 12.4 10 Sudoeste 15 Sudoeste 0 -- -- 62
2019-08-14 02:00:00 13.5 6 Sudoeste 11 Sudoeste 0 -- -- 59
2019-08-14 01:00:00 15.3 0 Calma 11 Noroeste 0 -- -- 53
2019-08-14 00:00:00 17.1 5 Noroeste 24 Norte 0 -- -- 51
2019-08-13 23:00:00 18.8 12 Norte 22 Noroeste 0 -- -- 46
2019-08-13 22:00:00 20 6 Noroeste 24 Noroeste 0 -- -- 39
2019-08-13 21:00:00 23.8 12 Oeste 24 Oeste 0 -- -- 21
2019-08-13 20:00:00 26.2 13 Oeste 23 Oeste 0 -- -- 20
2019-08-13 19:00:00 27.2 10 Oeste 29 Oeste 0 -- -- 18
2019-08-13 18:00:00 27.6 17 Sudoeste 34 Oeste 0 -- -- 19
2019-08-13 17:00:00 27.8 5 Sur 31 Sudoeste 0 -- -- 19
2019-08-13 16:00:00 26.4 16 Oeste 29 Oeste 0 -- -- 21
2019-08-13 15:00:00 25.2 9 Noroeste 26 Noroeste 0 -- -- 24
2019-08-13 14:00:00 23.7 4 Sur 14 Norte 0 -- -- 28
2019-08-13 13:00:00 21.1 8 Este 19 Este 0 -- -- 34
2019-08-13 12:00:00 19.6 7 Este 13 Este 0 -- -- 37
2019-08-13 11:00:00 17.9 3 Nordeste 12 Nordeste 0 -- -- 43
2019-08-13 10:00:00 15.7 4 Norte 9 Norte 0 -- -- 48
2019-08-13 09:00:00 12.3 0 Calma 5 Sudeste 0 -- -- 61
2019-08-13 08:00:00 10.2 2 Sur 4 Sur 0 -- -- 66
2019-08-13 07:00:00 11.4 0 Calma 5 Norte 0 -- -- 62
2019-08-13 06:00:00 11.9 0 Calma 5 Sudeste 0 -- -- 62
2019-08-13 05:00:00 11.9 3 Sur 6 Este 0 -- -- 66
2019-08-13 04:00:00 12.4 3 Este 15 Noroeste 0 -- -- 65
2019-08-13 03:00:00 12.8 4 Noroeste 18 Noroeste 0 -- -- 64
2019-08-13 02:00:00 12.8 5 Noroeste 16 Noroeste 0 -- -- 64
2019-08-13 01:00:00 13.5 10 Noroeste 24 Noroeste 0 -- -- 63
2019-08-13 00:00:00 14.2 8 Norte 19 Nordeste 0 -- -- 62
2019-08-12 23:00:00 15.1 9 Norte 29 Norte 0 -- -- 57
2019-08-12 22:00:00 16.4 14 Norte 33 Noroeste 0 -- -- 52
2019-08-12 21:00:00 19.1 16 Norte 36 Noroeste 0 -- -- 39
2019-08-12 20:00:00 21.1 18 Norte 33 Norte 0 -- -- 34
2019-08-12 19:00:00 23.3 11 Norte 28 Norte 0 -- -- 30
2019-08-12 18:00:00 24.2 10 Noroeste 26 Nordeste 0 -- -- 29
2019-08-12 17:00:00 24.3 6 Norte 31 Norte 0 -- -- 29
2019-08-12 16:00:00 24 10 Nordeste 25 Noroeste 0 -- -- 30
2019-08-12 15:00:00 23.6 10 Noroeste 24 Norte 0 -- -- 29
2019-08-12 14:00:00 22.8 11 Noroeste 27 Norte 0 -- -- 31
2019-08-12 13:00:00 21.3 8 Norte 27 Noroeste 0 -- -- 37
2019-08-12 12:00:00 19.3 10 Oeste 23 Oeste 0 -- -- 50
2019-08-12 11:00:00 17.2 10 Noroeste 24 Oeste 0 -- -- 58
2019-08-12 10:00:00 15.1 15 Noroeste 30 Noroeste 0 -- -- 67
2019-08-12 09:00:00 14 12 Oeste 21 Oeste 0 -- -- 73
2019-08-12 08:00:00 11 0 Calma 6 Sudoeste 0 -- -- 83
2019-08-12 07:00:00 11 6 Sudoeste 8 Sudoeste 0 -- -- 83
2019-08-12 06:00:00 11.4 5 Sur 11 Oeste 0 -- -- 80
2019-08-12 05:00:00 11.9 8 Oeste 13 Sudoeste 0 -- -- 80
2019-08-12 04:00:00 13.7 2 Sudoeste 10 Norte 0 -- -- 73
2019-08-12 03:00:00 15 3 Noroeste 8 Oeste 0 -- -- 73
2019-08-12 02:00:00 15.9 4 Norte 13 Nordeste 0 -- -- 69
2019-08-12 01:00:00 17 6 Nordeste 17 Oeste 0 -- -- 65
2019-08-12 00:00:00 17.7 12 Noroeste 27 Noroeste 0 -- -- 63
2019-08-11 23:00:00 19.1 14 Noroeste 21 Noroeste 0 -- -- 58
2019-08-11 22:00:00 21.1 7 Noroeste 23 Oeste 0 -- -- 50
2019-08-11 21:00:00 23.1 11 Oeste 34 Oeste 0 -- -- 39
2019-08-11 20:00:00 25 19 Oeste 35 Oeste 0 -- -- 35
2019-08-11 19:00:00 26.6 23 Oeste 36 Oeste 0 -- -- 33
2019-08-11 18:00:00 27.7 17 Oeste 33 Oeste 0 -- -- 32
2019-08-11 17:00:00 29.3 22 Sudoeste 51 Sur 0 -- -- 24
2019-08-11 16:00:00 29.8 25 Sur 49 Sudoeste 0 -- -- 21
2019-08-11 15:00:00 29.5 28 Sudoeste 48 Sudoeste 0 -- -- 20
2019-08-11 14:00:00 29 15 Sur 32 Sur 0 -- -- 26
2019-08-11 13:00:00 27.1 12 Sudoeste 30 Sudoeste 0 -- -- 31
2019-08-11 12:00:00 25.4 6 Este 13 Sudoeste 0 -- -- 37
2019-08-11 11:00:00 23.1 8 Norte 17 Norte 0 -- -- 43
2019-08-11 10:00:00 20.7 3 Sudoeste 12 Sudoeste 0 -- -- 53
2019-08-11 09:00:00 18.2 4 Norte 19 Sudoeste 0 -- -- 64
2019-08-11 08:00:00 18.8 14 Oeste 29 Oeste 0 -- -- 56
2019-08-11 07:00:00 17.9 9 Sudoeste 22 Sudoeste 0 -- -- 64
2019-08-11 06:00:00 16.7 12 Sudoeste 19 Sudoeste 0 -- -- 65
2019-08-11 05:00:00 16.8 3 Sudoeste 6 Sur 0 -- -- 62
2019-08-11 04:00:00 17.6 0 Calma 5 Sudeste 0 -- -- 58
2019-08-11 03:00:00 18.1 0 Calma 6 Sudoeste 0 -- -- 56
2019-08-11 02:00:00 18.6 6 Sur 10 Sudoeste 0 -- -- 53
2019-08-11 01:00:00 18.9 4 Sudoeste 8 Sudoeste 0 -- -- 54
2019-08-11 00:00:00 19.8 3 Sudoeste 5 Sudoeste 0 -- -- 47
2019-08-10 23:00:00 22.7 2 Oeste 12 Nordeste 0 -- -- 44
2019-08-10 22:00:00 24.8 8 Norte 13 Norte 0 -- -- 43
2019-08-10 21:00:00 26.9 9 Oeste 18 Sudoeste 0 -- -- 27
2019-08-10 20:00:00 29.3 18 Sudoeste 30 Sudoeste 0 -- -- 25
2019-08-10 19:00:00 30.1 20 Sudoeste 37 Sudoeste 0 -- -- 25
2019-08-10 18:00:00 31.4 17 Sur 40 Sudoeste 0 -- -- 22
2019-08-10 17:00:00 31.9 17 Sudoeste 37 Sudoeste 0 -- -- 23
2019-08-10 16:00:00 32.1 11 Sudoeste 33 Sur 0 -- -- 24
2019-08-10 15:00:00 29.8 9 Oeste 17 Este 0 -- -- 34
2019-08-10 14:00:00 27 8 Norte 19 Norte 0 -- -- 41
2019-08-10 13:00:00 25.7 10 Norte 20 Oeste 0 -- -- 44
2019-08-10 12:00:00 24.5 5 Oeste 19 Norte 0 -- -- 49
2019-08-10 11:00:00 22.4 5 Norte 9 Oeste 0 -- -- 55
2019-08-10 10:00:00 19.7 3 Sudoeste 9 Sudoeste 0 -- -- 65
2019-08-10 09:00:00 18.3 2 Oeste 6 Sudoeste 0 -- -- 73
2019-08-10 08:00:00 15.3 0 Calma 7 Oeste 0 -- -- 80
2019-08-10 07:00:00 15.1 0 Calma 10 Sudoeste 0 -- -- 80
2019-08-10 06:00:00 15.6 7 Sudoeste 10 Sudoeste 0 -- -- 78
2019-08-10 05:00:00 16.2 5 Sudoeste 13 Sudoeste 0 -- -- 77
2019-08-10 04:00:00 15.7 3 Oeste 6 Sur 0 -- -- 76
2019-08-10 03:00:00 16.6 4 Sur 10 Sudoeste 0 -- -- 74
2019-08-10 02:00:00 17.3 6 Sudoeste 11 Sudoeste 0 -- -- 72
2019-08-10 01:00:00 18.3 4 Sudoeste 11 Noroeste 0 -- -- 69
2019-08-10 00:00:00 19.5 4 Sudoeste 6 Sur 0 -- -- 67
2019-08-09 23:00:00 20.6 4 Sudoeste 19 Sudoeste 0 -- -- 64
2019-08-09 22:00:00 21.5 12 Sudoeste 44 Oeste 0 -- -- 65
2019-08-09 21:00:00 23.1 37 Oeste 56 Sudoeste 0 -- -- 64
2019-08-09 20:00:00 29.9 35 Sur 53 Sudoeste 0 -- -- 41
2019-08-09 19:00:00 31.4 37 Sudoeste 53 Sudoeste 0 -- -- 38
2019-08-09 18:00:00 32.3 32 Sudoeste 51 Sudoeste 0 -- -- 36
2019-08-09 17:00:00 32.4 32 Sur 50 Sur 0 -- -- 36
2019-08-09 16:00:00 32.1 32 Sur 60 Sudoeste 0 -- -- 37
2019-08-09 15:00:00 31.6 33 Sur 60 Sur 0 -- -- 37
2019-08-09 14:00:00 30.9 34 Sur 54 Sur 0 -- -- 37
2019-08-09 13:00:00 30.4 33 Sur 57 Sudoeste 0 -- -- 36
2019-08-09 12:00:00 29.1 39 Sur 59 Sur 0 -- -- 37
2019-08-09 11:00:00 27.4 34 Sur 53 Sudoeste 0 -- -- 42
2019-08-09 10:00:00 26 27 Sudoeste 43 Sudoeste 0 -- -- 46
2019-08-09 09:00:00 23.9 19 Sur 35 Sur 0 -- -- 51
2019-08-09 08:00:00 21.5 13 Sur 23 Sur 0 -- -- 57
2019-08-09 07:00:00 18.6 3 Sudoeste 13 Sur 0 -- -- 59
2019-08-09 06:00:00 18.7 3 Sudoeste 12 Oeste 0 -- -- 57
2019-08-09 05:00:00 20.1 7 Sudoeste 14 Sudoeste 0 -- -- 53
2019-08-09 04:00:00 20.9 8 Sudoeste 12 Sudoeste 0 -- -- 52
2019-08-09 03:00:00 22.2 8 Sudoeste 11 Sudoeste 0 -- -- 48
2019-08-09 02:00:00 24.7 10 Sur 23 Sur 0 -- -- 43
2019-08-09 01:00:00 26.1 15 Sudoeste 30 Sudoeste 0 -- -- 40
2019-08-09 00:00:00 26.2 18 Sudoeste 31 Sudoeste 0 -- -- 39
2019-08-08 23:00:00 27.6 17 Sudoeste 26 Sudoeste 0 -- -- 36
2019-08-08 22:00:00 28.6 16 Sudoeste 32 Sudoeste 0 -- -- 35
2019-08-08 21:00:00 30.1 21 Sudoeste 44 Sur 0 -- -- 34
2019-08-08 20:00:00 31.4 25 Sudoeste 48 Sudoeste 0 -- -- 33
2019-08-08 19:00:00 32 30 Sudoeste 46 Sur 0 -- -- 33
2019-08-08 18:00:00 32.8 34 Sudoeste 51 Sudoeste 0 -- -- 32
2019-08-08 17:00:00 33.1 32 Sur 49 Sur 0 -- -- 31
2019-08-08 16:00:00 32.9 25 Sudoeste 45 Sudeste 0 -- -- 32
2019-08-08 15:00:00 31.9 23 Sur 42 Sur 0 -- -- 33
2019-08-08 14:00:00 30.9 18 Sur 39 Sur 0 -- -- 34
2019-08-08 13:00:00 29.6 18 Sudoeste 31 Sudoeste 0 -- -- 36
2019-08-08 12:00:00 27.5 11 Sudoeste 26 Sudoeste 0 -- -- 38
2019-08-08 11:00:00 25.7 12 Sudoeste 21 Sudoeste 0 -- -- 42
2019-08-08 10:00:00 23.4 6 Oeste 17 Sudoeste 0 -- -- 49
2019-08-08 09:00:00 20.3 10 Oeste 17 Sudoeste 0 -- -- 58
2019-08-08 08:00:00 17 8 Sudoeste 13 Oeste 0 -- -- 68
2019-08-08 07:00:00 16.7 10 Oeste 13 Oeste 0 -- -- 68
2019-08-08 06:00:00 17.6 8 Sudoeste 15 Sudoeste 0 -- -- 65
2019-08-08 05:00:00 18.1 4 Sudoeste 16 Sur 0 -- -- 63
2019-08-08 04:00:00 19.3 13 Sudoeste 17 Sudoeste 0 -- -- 60
2019-08-08 03:00:00 19.5 12 Sudoeste 18 Sudoeste 0 -- -- 58
2019-08-08 02:00:00 19.1 4 Sudoeste 14 Oeste 0 -- -- 57
2019-08-08 01:00:00 20.2 11 Sudoeste 16 Oeste 0 -- -- 55
2019-08-08 00:00:00 21.9 13 Oeste 17 Oeste 0 -- -- 50
2019-08-07 23:00:00 22.5 8 Sudoeste 13 Sudoeste 0 -- -- 46
2019-08-07 22:00:00 24.5 10 Sudoeste 28 Sudoeste 0 -- -- 41
2019-08-07 21:00:00 25.2 18 Sur 39 Sudoeste 0 -- -- 40
2019-08-07 20:00:00 26 27 Sudoeste 37 Sudoeste 0 -- -- 39
2019-08-07 19:00:00 26.8 27 Sudoeste 41 Sur 0 -- -- 39
2019-08-07 18:00:00 26.4 26 Sudoeste 38 Sudoeste 0 -- -- 39
2019-08-07 17:00:00 27.3 24 Sudoeste 41 Sudoeste 0 -- -- 36
2019-08-07 16:00:00 26.6 24 Sudoeste 36 Sudoeste 0 -- -- 40
2019-08-07 15:00:00 27.9 20 Sur 29 Sur 0 -- -- 36
2019-08-07 14:00:00 27.9 19 Sur 31 Sur 0 -- -- 35
2019-08-07 13:00:00 28.7 9 Sur 23 Sudoeste 0 -- -- 33
2019-08-07 12:00:00 28.9 7 Sudoeste 20 Sudoeste 0 -- -- 34
2019-08-07 11:00:00 27.2 7 Sur 14 Sudoeste 0 -- -- 36
2019-08-07 10:00:00 25.8 7 Sudoeste 15 Sudoeste 0 -- -- 40
2019-08-07 09:00:00 22.6 2 Sudoeste 9 Sudoeste 0 -- -- 42
2019-08-07 08:00:00 19.3 6 Oeste 10 Oeste 0 -- -- 50
2019-08-07 07:00:00 20.2 4 Oeste 9 Oeste 0 -- -- 47
2019-08-07 06:00:00 20.8 8 Sudoeste 10 Sudoeste 0 -- -- 49
2019-08-07 05:00:00 22.3 5 Sudoeste 12 Oeste 0 -- -- 49
2019-08-07 04:00:00 23 3 Sudoeste 12 Sudoeste 0 -- -- 44
2019-08-07 03:00:00 23.3 4 Oeste 20 Sudoeste 0 -- -- 40
2019-08-07 02:00:00 23.5 6 Sudoeste 9 Sudoeste 0 -- -- 29
2019-08-07 01:00:00 24.9 5 Sudoeste 19 Sur 0 -- -- 25
2019-08-07 00:00:00 25.5 10 Sudoeste 20 Sur 0 -- -- 24
2019-08-06 23:00:00 28.3 13 Sur 26 Sur 0 -- -- 20
2019-08-06 22:00:00 28.8 14 Sudoeste 24 Sur 0 -- -- 20
2019-08-06 21:00:00 30.9 16 Sudoeste 26 Sudoeste 0 -- -- 18
2019-08-06 20:00:00 32.7 16 Sur 38 Sudoeste 0 -- -- 16
2019-08-06 19:00:00 34.3 30 Sudoeste 45 Sudoeste 0 -- -- 15
2019-08-06 18:00:00 34.4 26 Sur 42 Sudoeste 0 -- -- 16
2019-08-06 17:00:00 34.8 19 Sur 41 Sur 0 -- -- 15
2019-08-06 16:00:00 34.3 25 Sudoeste 41 Sur 0 -- -- 16
2019-08-06 15:00:00 33.7 18 Sur 50 Sudoeste 0 -- -- 17
2019-08-06 14:00:00 33.3 27 Sudoeste 42 Sur 0 -- -- 18
2019-08-06 13:00:00 32.2 21 Sudoeste 42 Sudoeste 0 -- -- 21
2019-08-06 12:00:00 31.1 14 Sur 26 Sur 0 -- -- 24
2019-08-06 11:00:00 29.2 6 Oeste 16 Sudoeste 0 -- -- 27
2019-08-06 10:00:00 26.8 4 Este 11 Oeste 0 -- -- 30
2019-08-06 09:00:00 22.3 8 Sudoeste 17 Oeste 0 -- -- 36
2019-08-06 08:00:00 18.2 14 Oeste 18 Sudoeste 0 -- -- 42
2019-08-06 07:00:00 18.3 10 Sudoeste 24 Sudoeste 0 -- -- 40
2019-08-06 06:00:00 19.2 17 Sudoeste 22 Oeste 0 -- -- 38
2019-08-06 05:00:00 18.6 15 Sudoeste 19 Sudoeste 0 -- -- 39
2019-08-06 04:00:00 20.1 6 Sudoeste 22 Sudoeste 0 -- -- 34
2019-08-06 03:00:00 19.8 13 Sudoeste 17 Sudoeste 0 -- -- 33
2019-08-06 02:00:00 21.3 14 Sudoeste 21 Oeste 0 -- -- 31
2019-08-06 01:00:00 20.4 13 Sudoeste 17 Oeste 0 -- -- 32
2019-08-06 00:00:00 22.5 3 Sudoeste 8 Sudoeste 0 -- -- 29
2019-08-05 23:00:00 24.8 5 Sudoeste 12 Oeste 0 -- -- 25
2019-08-05 22:00:00 26.2 8 Sudoeste 17 Sudoeste 0 -- -- 24
2019-08-05 21:00:00 31.8 14 Sudoeste 30 Sudoeste 0 -- -- 19
2019-08-05 20:00:00 33.6 17 Sudoeste 33 Sudoeste 0 -- -- 18
2019-08-05 19:00:00 34.6 21 Sur 38 Sudoeste 0 -- -- 16
2019-08-05 18:00:00 35.3 15 Sudoeste 47 Sudoeste 0 -- -- 18
2019-08-05 17:00:00 35.3 20 Sudoeste 38 Sudoeste 0 -- -- 18
2019-08-05 16:00:00 34.9 15 Sur 49 Sudoeste 0 -- -- 18
2019-08-05 15:00:00 34.4 22 Sur 44 Sur 0 -- -- 19
2019-08-05 14:00:00 33.8 17 Sur 38 Sudoeste 0 -- -- 21
2019-08-05 13:00:00 32.6 30 Sudoeste 43 Sudoeste 0 -- -- 23
2019-08-05 12:00:00 30 8 Nordeste 14 Este 0 -- -- 33
2019-08-05 11:00:00 26.4 8 Este 14 Este 0 -- -- 42
2019-08-05 10:00:00 24 6 Nordeste 10 Nordeste 0 -- -- 46
2019-08-05 09:00:00 20.7 2 Sur 6 Sur 0 -- -- 38
2019-08-05 08:00:00 17.2 4 Sur 15 Sudoeste 0 -- -- 41
2019-08-05 07:00:00 17.5 11 Sudoeste 18 Sudoeste 0 -- -- 40
2019-08-05 06:00:00 17.6 11 Sudoeste 17 Sudoeste 0 -- -- 39
2019-08-05 05:00:00 17.5 8 Sudoeste 18 Oeste 0 -- -- 36
2019-08-05 04:00:00 19.4 15 Sudoeste 21 Sudoeste 0 -- -- 33
2019-08-05 03:00:00 19.5 13 Sudoeste 27 Oeste 0 -- -- 33
2019-08-05 02:00:00 20.4 4 Sur 19 Oeste 0 -- -- 31
2019-08-05 01:00:00 21.3 4 Sudoeste 8 Sudoeste 0 -- -- 30
2019-08-05 00:00:00 24.1 10 Sudoeste 18 Oeste 0 -- -- 26
2019-08-04 23:00:00 24.7 10 Sudoeste 18 Oeste 0 -- -- 25
2019-08-04 22:00:00 26.3 12 Oeste 16 Sudoeste 0 -- -- 23
2019-08-04 21:00:00 31.3 13 Sudoeste 27 Sur 0 -- -- 19
2019-08-04 20:00:00 33.2 18 Sur 38 Sudoeste 0 -- -- 17
2019-08-04 19:00:00 34.4 21 Sur 44 Sudoeste 0 -- -- 18
2019-08-04 18:00:00 35.2 19 Sudoeste 45 Sudoeste 0 -- -- 17
2019-08-04 17:00:00 35.1 22 Sudoeste 50 Sudoeste 0 -- -- 17
2019-08-04 16:00:00 35.1 22 Sudoeste 38 Sur 0 -- -- 18
2019-08-04 15:00:00 34.5 19 Sur 40 Sudoeste 0 -- -- 19
2019-08-04 14:00:00 33.8 17 Sur 35 Sudoeste 0 -- -- 21
2019-08-04 13:00:00 33.2 21 Sur 41 Sudoeste 0 -- -- 22
2019-08-04 12:00:00 29.9 9 Nordeste 14 Este 0 -- -- 35
2019-08-04 11:00:00 27.2 7 Nordeste 13 Nordeste 0 -- -- 43
2019-08-04 10:00:00 24.8 6 Nordeste 11 Nordeste 0 -- -- 50
2019-08-04 09:00:00 21.3 2 Sur 5 Sudoeste 0 -- -- 46
2019-08-04 08:00:00 16.9 3 Sudoeste 5 Sudoeste 0 -- -- 54
2019-08-04 07:00:00 16.5 0 Calma 5 Sudoeste 0 -- -- 44
2019-08-04 06:00:00 16.9 0 Calma 6 Este 0 -- -- 38
2019-08-04 05:00:00 18.6 4 Sur 13 Oeste 0 -- -- 35
2019-08-04 04:00:00 19.8 12 Sudoeste 19 Oeste 0 -- -- 29
2019-08-04 03:00:00 18.5 13 Sudoeste 17 Sudoeste 0 -- -- 32
2019-08-04 02:00:00 19.4 8 Sudoeste 15 Sudoeste 0 -- -- 29
2019-08-04 01:00:00 20.6 5 Sudoeste 9 Oeste 0 -- -- 27
2019-08-04 00:00:00 23.5 3 Norte 15 Sudoeste 0 -- -- 23
2019-08-03 23:00:00 24.4 10 Sudoeste 15 Oeste 0 -- -- 22
2019-08-03 22:00:00 26.5 10 Oeste 26 Sudoeste 0 -- -- 20
2019-08-03 21:00:00 31.4 17 Sudoeste 37 Sudoeste 0 -- -- 15
2019-08-03 20:00:00 33.3 24 Sudoeste 39 Sur 0 -- -- 15
2019-08-03 19:00:00 34.5 23 Sudoeste 47 Sudoeste 0 -- -- 16
2019-08-03 18:00:00 35.2 24 Sudoeste 38 Sudoeste 0 -- -- 15
2019-08-03 17:00:00 35.3 19 Sudoeste 49 Sudoeste 0 -- -- 17
2019-08-03 16:00:00 35 23 Sudoeste 41 Sudoeste 0 -- -- 20
2019-08-03 15:00:00 34.6 15 Sudoeste 40 Sur 0 -- -- 21
2019-08-03 14:00:00 33.9 19 Sudoeste 35 Sudoeste 0 -- -- 22
2019-08-03 13:00:00 31.3 5 Nordeste 13 Nordeste 0 -- -- 33
2019-08-03 12:00:00 28.3 6 Nordeste 16 Nordeste 0 -- -- 40
2019-08-03 11:00:00 26 8 Nordeste 14 Este 0 -- -- 42
2019-08-03 10:00:00 23.8 5 Nordeste 9 Nordeste 0 -- -- 45
2019-08-03 09:00:00 20.3 0 Calma 5 Sur 0 -- -- 52
2019-08-03 08:00:00 16.1 4 Sudoeste 12 Sudoeste 0 -- -- 62
2019-08-03 07:00:00 15.1 7 Sudoeste 11 Sudoeste 0 -- -- 63
2019-08-03 06:00:00 15.2 6 Sudoeste 11 Sudoeste 0 -- -- 61
2019-08-03 05:00:00 15.7 3 Sudoeste 6 Sudoeste 0 -- -- 59
2019-08-03 04:00:00 16.7 4 Sudoeste 9 Sudoeste 0 -- -- 57
2019-08-03 03:00:00 17.3 2 Sudoeste 4 Sudoeste 0 -- -- 55
2019-08-03 02:00:00 18.7 2 Sudoeste 6 Noroeste 0 -- -- 50
2019-08-03 01:00:00 20.7 2 Noroeste 5 Noroeste 0 -- -- 46
2019-08-03 00:00:00 23 0 Calma 6 Nordeste 0 -- -- 39
2019-08-02 23:00:00 25.2 5 Nordeste 17 Nordeste 0 -- -- 36
2019-08-02 22:00:00 26.7 9 Nordeste 29 Nordeste 0 -- -- 35
2019-08-02 21:00:00 28.6 19 Nordeste 35 Nordeste 0 -- -- 33
2019-08-02 20:00:00 31.4 17 Nordeste 33 Nordeste 0 -- -- 31
2019-08-02 19:00:00 32.8 11 Norte 22 Nordeste 0 -- -- 25
2019-08-02 18:00:00 33.4 11 Noroeste 20 Oeste 0 -- -- 25
2019-08-02 17:00:00 33.6 6 Noroeste 20 Oeste 0 -- -- 25
2019-08-02 16:00:00 32.1 6 Nordeste 22 Nordeste 0 -- -- 27
2019-08-02 15:00:00 31.3 10 Noroeste 19 Norte 0 -- -- 28
2019-08-02 14:00:00 29.9 12 Nordeste 23 Nordeste 0 -- -- 32
2019-08-02 13:00:00 28.2 10 Nordeste 17 Este 0 -- -- 45
2019-08-02 12:00:00 25.8 5 Nordeste 18 Nordeste 0 -- -- 53
2019-08-02 11:00:00 23.6 10 Este 16 Este 0 -- -- 59
2019-08-02 10:00:00 21.6 6 Nordeste 10 Nordeste 0 -- -- 67
2019-08-02 09:00:00 19.5 3 Nordeste 5 Nordeste 0 -- -- 74
2019-08-02 08:00:00 15.7 2 Sudoeste 4 Sudoeste 0 -- -- 81
2019-08-02 07:00:00 15.2 2 Sudoeste 3 Sudoeste 0 -- -- 80
2019-08-02 06:00:00 15.9 0 Calma 4 Sudoeste 0 -- -- 78
2019-08-02 05:00:00 16.8 0 Calma 4 Sur 0 -- -- 75
2019-08-02 04:00:00 17.5 0 Calma 3 Sudoeste 0 -- -- 70
2019-08-02 03:00:00 18.8 0 Calma 3 Sur 0 -- -- 67
2019-08-02 02:00:00 20.6 0 Calma 6 Nordeste 0 -- -- 62
2019-08-02 01:00:00 22.4 4 Nordeste 15 Norte 0 -- -- 62
2019-08-02 00:00:00 23.6 6 Noroeste 18 Noroeste 0 -- -- 58
2019-08-01 23:00:00 24.9 5 Nordeste 12 Norte 0 -- -- 39
2019-08-01 22:00:00 25.3 5 Sudoeste 9 Sur 0 -- -- 36
2019-08-01 21:00:00 27.4 10 Oeste 25 Oeste 0 -- -- 31
2019-08-01 20:00:00 30.4 13 Oeste 35 Sudoeste 0 -- -- 24
2019-08-01 19:00:00 33 23 Sudoeste 44 Sudoeste 0 -- -- 21
2019-08-01 18:00:00 33.3 23 Sudoeste 40 Sudoeste 0 -- -- 22
2019-08-01 17:00:00 33.1 21 Sur 38 Sur 0 -- -- 22
2019-08-01 16:00:00 32.4 16 Sur 37 Sudoeste 0 -- -- 25
2019-08-01 15:00:00 30.8 14 Sudoeste 31 Sudeste 0 -- -- 30
2019-08-01 14:00:00 29.9 10 Norte 26 Nordeste 0 -- -- 38
2019-08-01 13:00:00 28.4 9 Nordeste 17 Nordeste 0 -- -- 40
2019-08-01 12:00:00 26.5 7 Este 14 Nordeste 0 -- -- 44
2019-08-01 11:00:00 24 9 Nordeste 15 Nordeste 0 -- -- 54
2019-08-01 10:00:00 21.4 5 Noroeste 14 Noroeste 0 -- -- 66
2019-08-01 09:00:00 20.5 4 Norte 9 Norte 0 -- -- 73
2019-08-01 08:00:00 17.3 5 Sudoeste 7 Oeste 0 -- -- 81
2019-08-01 07:00:00 17.6 0 Calma 7 Sudoeste 0 -- -- 78
2019-08-01 06:00:00 18.2 2 Noroeste 11 Oeste 0 -- -- 76
2019-08-01 05:00:00 18.5 4 Sudoeste 8 Sur 0 -- -- 76
2019-08-01 04:00:00 19.7 4 Nordeste 10 Norte 0 -- -- 70
2019-08-01 03:00:00 20.4 4 Nordeste 10 Nordeste 0 -- -- 68
2019-08-01 02:00:00 21.7 4 Nordeste 18 Nordeste 0 -- -- 65
2019-08-01 01:00:00 22.5 9 Nordeste 23 Nordeste 0 -- -- 63
2019-08-01 00:00:00 23.6 11 Norte 24 Nordeste 0 -- -- 59
2019-07-31 23:00:00 24.2 11 Norte 19 Nordeste 0 -- -- 47
2019-07-31 22:00:00 24.8 10 Nordeste 22 Nordeste 0 -- -- 40
2019-07-31 21:00:00 25.9 14 Nordeste 30 Nordeste 0 -- -- 38
2019-07-31 20:00:00 27 19 Nordeste 33 Nordeste 0 -- -- 36
2019-07-31 19:00:00 27.8 18 Nordeste 33 Nordeste 0 -- -- 34
2019-07-31 18:00:00 29.4 19 Nordeste 32 Nordeste 0 -- -- 33
2019-07-31 17:00:00 29.9 14 Nordeste 31 Nordeste 0 -- -- 32
2019-07-31 16:00:00 29.1 15 Nordeste 31 Nordeste 0 -- -- 33
2019-07-31 15:00:00 27.3 13 Nordeste 25 Nordeste 0 -- -- 35
2019-07-31 14:00:00 25.8 12 Norte 26 Nordeste 0 -- -- 36
2019-07-31 13:00:00 23.7 12 Norte 22 Norte 0 -- -- 38
2019-07-31 12:00:00 21.8 10 Nordeste 20 Nordeste 0 -- -- 41
2019-07-31 11:00:00 19.7 12 Nordeste 23 Nordeste 0 -- -- 44
2019-07-31 10:00:00 17.9 8 Norte 18 Nordeste 0 -- -- 50
2019-07-31 09:00:00 15.2 4 Nordeste 8 Este 0 -- -- 62
2019-07-31 08:00:00 12 2 Sudoeste 4 Sudoeste 0 -- -- 72
2019-07-31 07:00:00 11.1 0 Calma 3 Oeste 0 -- -- 73
2019-07-31 06:00:00 11.1 0 Calma 4 Sudoeste 0 -- -- 72
2019-07-31 05:00:00 11.3 0 Calma 4 Sudeste 0 -- -- 71
2019-07-31 04:00:00 12.1 0 Calma 4 Sudeste 0 -- -- 69
2019-07-31 03:00:00 13 0 Calma 9 Norte 0 -- -- 65
2019-07-31 02:00:00 14.2 5 Norte 19 Noroeste 0 -- -- 64
2019-07-31 01:00:00 14.8 10 Noroeste 21 Noroeste 0 -- -- 62
2019-07-31 00:00:00 15.6 11 Noroeste 28 Noroeste 0 -- -- 59
2019-07-30 23:00:00 17.2 15 Noroeste 30 Noroeste 0 -- -- 53
2019-07-30 22:00:00 19.3 14 Noroeste 30 Noroeste 0 -- -- 46
2019-07-30 21:00:00 22.9 16 Norte 33 Norte 0 -- -- 37
2019-07-30 20:00:00 25.7 21 Nordeste 33 Norte 0 -- -- 32
2019-07-30 19:00:00 27.9 11 Noroeste 21 Norte 0 -- -- 22
2019-07-30 18:00:00 27.6 9 Norte 27 Norte 0 -- -- 23
2019-07-30 17:00:00 28.4 9 Oeste 23 Oeste 0 -- -- 26
2019-07-30 16:00:00 26.8 5 Norte 20 Noroeste 0 -- -- 29
2019-07-30 15:00:00 25.1 6 Norte 14 Norte 0 -- -- 33
2019-07-30 14:00:00 23.9 9 Este 21 Norte 0 -- -- 38
2019-07-30 13:00:00 22.6 7 Noroeste 18 Nordeste 0 -- -- 41
2019-07-30 12:00:00 20.9 10 Norte 18 Norte 0 -- -- 48
2019-07-30 11:00:00 19.7 5 Noroeste 17 Oeste 0 -- -- 53
2019-07-30 10:00:00 17.8 12 Oeste 26 Oeste 0 -- -- 59
2019-07-30 09:00:00 15.8 12 Noroeste 23 Noroeste 0 -- -- 58
2019-07-30 08:00:00 12.5 3 Sudoeste 8 Sudoeste 0 -- -- 63
2019-07-30 07:00:00 12.6 0 Calma 11 Oeste 0 -- -- 58
2019-07-30 06:00:00 14.7 5 Noroeste 15 Oeste 0 -- -- 55
2019-07-30 05:00:00 15.4 5 Noroeste 14 Oeste 0 -- -- 52
2019-07-30 04:00:00 16.1 9 Oeste 15 Sudoeste 0 -- -- 46
2019-07-30 03:00:00 17.5 8 Sudoeste 12 Oeste 0 -- -- 39
2019-07-30 02:00:00 19 3 Sudoeste 14 Noroeste 0 -- -- 34
2019-07-30 01:00:00 20.7 5 Sudeste 24 Sudoeste 0 -- -- 31
2019-07-30 00:00:00 22.3 13 Sudoeste 23 Sudoeste 0 -- -- 29
2019-07-29 23:00:00 23.6 17 Sudoeste 29 Sudoeste 0 -- -- 28
2019-07-29 22:00:00 24.9 8 Sudoeste 25 Oeste 0 -- -- 34
2019-07-29 21:00:00 27.3 17 Oeste 33 Oeste 0 -- -- 31
2019-07-29 20:00:00 29.6 22 Oeste 32 Noroeste 0 -- -- 26
2019-07-29 19:00:00 31.2 23 Oeste 47 Sur 0 -- -- 24
2019-07-29 18:00:00 32 24 Sudoeste 46 Sudoeste 0 -- -- 21
2019-07-29 17:00:00 32.2 24 Sudoeste 55 Sudoeste 0 -- -- 20
2019-07-29 16:00:00 31.8 26 Sudoeste 43 Sudoeste 0 -- -- 23
2019-07-29 15:00:00 31.1 25 Sudoeste 44 Sudoeste 0 -- -- 25
2019-07-29 14:00:00 30.3 15 Sur 42 Sur 0 -- -- 26
2019-07-29 13:00:00 29.5 5 Sudoeste 18 Oeste 0 -- -- 28
2019-07-29 12:00:00 26.8 5 Norte 15 Noroeste 0 -- -- 31
2019-07-29 11:00:00 23.6 8 Nordeste 13 Este 0 -- -- 41
2019-07-29 10:00:00 20.9 7 Norte 13 Noroeste 0 -- -- 48
2019-07-29 09:00:00 16.9 0 Calma 11 Sudoeste 0 -- -- 55
2019-07-29 08:00:00 13.2 7 Sudoeste 12 Oeste 0 -- -- 66
2019-07-29 07:00:00 11.9 11 Sudoeste 15 Sudoeste 0 -- -- 71
2019-07-29 06:00:00 12.6 9 Sudoeste 13 Sudoeste 0 -- -- 68
2019-07-29 05:00:00 12.8 11 Sudoeste 13 Sudoeste 0 -- -- 69
2019-07-29 04:00:00 14 10 Sudoeste 13 Sur 0 -- -- 63
2019-07-29 03:00:00 14.4 8 Sudoeste 11 Sudoeste 0 -- -- 61
2019-07-29 02:00:00 15 3 Sur 5 Sur 0 -- -- 56
2019-07-29 01:00:00 16.6 3 Sur 5 Noroeste 0 -- -- 50
2019-07-29 00:00:00 18.5 4 Sudoeste 12 Norte 0 -- -- 40
2019-07-28 23:00:00 20.1 3 Nordeste 8 Nordeste 0 -- -- 33
2019-07-28 22:00:00 23.2 6 Sudoeste 24 Oeste 0 -- -- 27
2019-07-28 21:00:00 25.9 17 Oeste 23 Oeste 0 -- -- 24
2019-07-28 20:00:00 28.3 8 Oeste 22 Oeste 0 -- -- 24
2019-07-28 19:00:00 28.5 9 Oeste 25 Sudoeste 0 -- -- 24
2019-07-28 18:00:00 28.3 9 Sudoeste 23 Sudoeste 0 -- -- 24
2019-07-28 17:00:00 27.4 4 Oeste 23 Norte 0 -- -- 27
2019-07-28 16:00:00 25.5 5 Norte 21 Norte 0 -- -- 31
2019-07-28 15:00:00 24.9 4 Sudoeste 19 Nordeste 0 -- -- 34
2019-07-28 14:00:00 23.3 10 Sur 21 Oeste 0 -- -- 38
2019-07-28 13:00:00 22.1 7 Oeste 18 Norte 0 -- -- 42
2019-07-28 12:00:00 19.9 6 Nordeste 19 Noroeste 0 -- -- 47
2019-07-28 11:00:00 18.4 6 Norte 19 Oeste 0 -- -- 52
2019-07-28 10:00:00 16.5 6 Oeste 14 Norte 0 -- -- 59
2019-07-28 09:00:00 14.4 2 Sudoeste 6 Sudeste 0 -- -- 67
2019-07-28 08:00:00 10.9 0 Calma 11 Sudoeste 0 -- -- 81
2019-07-28 07:00:00 9.8 3 Noroeste 10 Sudoeste 0 -- -- 81
2019-07-28 06:00:00 9.8 5 Sudoeste 10 Oeste 0 -- -- 80
2019-07-28 05:00:00 10.6 7 Oeste 14 Oeste 0 -- -- 79
2019-07-28 04:00:00 11 4 Sudoeste 9 Sudoeste 0 -- -- 77
2019-07-28 03:00:00 11.7 3 Sudoeste 5 Sur 0 -- -- 75
2019-07-28 02:00:00 13 0 Calma 5 Sudoeste 0 -- -- 71
2019-07-28 01:00:00 14.2 3 Oeste 8 Oeste 0 -- -- 66
2019-07-28 00:00:00 15 7 Oeste 15 Norte 0 -- -- 65
2019-07-27 23:00:00 16.1 7 Norte 21 Norte 0 -- -- 65
2019-07-26 12:00:00 -- -- -- -- -- -- -- -- --
2019-07-26 11:00:00 -- -- -- -- -- -- -- -- --
2019-07-26 10:00:00 22.3 11 Norte 23 Norte 0 -- -- 59
2019-07-26 09:00:00 21.8 15 Oeste 26 Oeste 0 -- -- 61
2019-07-26 08:00:00 21.8 3 Sudoeste 12 Oeste 0 -- -- 50
2019-07-26 07:00:00 21.9 4 Sudoeste 14 Oeste 0 -- -- 48
2019-07-26 06:00:00 22.8 5 Noroeste 13 Oeste 0 -- -- 45
2019-07-26 05:00:00 22.7 7 Sudoeste 14 Oeste 0 -- -- 41
2019-07-26 04:00:00 22.8 5 Oeste 18 Sudoeste 0 -- -- 39
2019-07-26 03:00:00 24.2 10 Oeste 16 Oeste 0 -- -- 35
2019-07-26 02:00:00 26.1 13 Sudoeste 27 Sudoeste 0 -- -- 32
2019-07-26 01:00:00 26.7 21 Sudoeste 30 Sudoeste 0 -- -- 34
2019-07-26 00:00:00 25.9 8 Sudoeste 15 Sur 0 -- -- 35
2019-07-25 23:00:00 26.3 3 Sudoeste 8 Sudoeste 0 -- -- 33
2019-07-25 22:00:00 28.4 6 Sudoeste 22 Sur 0 -- -- 29
2019-07-25 21:00:00 32.5 15 Sur 29 Sudoeste 0 -- -- 23
2019-07-25 20:00:00 33.9 18 Sur 37 Sur 0 -- -- 22
2019-07-25 19:00:00 35 22 Sur 46 Sudoeste 0 -- -- 21
2019-07-25 18:00:00 35.5 22 Sur 44 Sur 0 -- -- 20
2019-07-25 17:00:00 35.6 24 Sur 47 Sur 0 -- -- 22
2019-07-25 16:00:00 35.6 27 Sur 44 Sur 0 -- -- 22
2019-07-25 15:00:00 35.4 22 Sur 49 Sur 0 -- -- 23
2019-07-25 14:00:00 34.7 23 Sur 44 Sudoeste 0 -- -- 24
2019-07-25 13:00:00 34.1 14 Sur 29 Sur 0 -- -- 25
2019-07-25 12:00:00 31.2 9 Nordeste 18 Nordeste 0 -- -- 29
2019-07-25 11:00:00 28.8 9 Nordeste 15 Nordeste 0 -- -- 32
2019-07-25 10:00:00 26.3 7 Nordeste 11 Nordeste 0 -- -- 37
2019-07-25 09:00:00 23.3 6 Nordeste 11 Nordeste 0 -- -- 42
2019-07-25 08:00:00 22.2 6 Nordeste 12 Sudeste 0 -- -- 43
2019-07-25 07:00:00 22.3 9 Sudoeste 24 Sur 0 -- -- 36
2019-07-25 06:00:00 23.2 3 Este 24 Oeste 0 -- -- 36
2019-07-25 05:00:00 24.9 14 Oeste 21 Noroeste 0 -- -- 32
2019-07-25 04:00:00 26 13 Sur 27 Sur 0 -- -- 32
2019-07-25 03:00:00 26.5 16 Sur 29 Sur 0 -- -- 33
2019-07-25 02:00:00 26.6 7 Sur 21 Sur 0 -- -- 34
2019-07-25 01:00:00 26.5 10 Oeste 19 Oeste 0 -- -- 34
2019-07-25 00:00:00 26.4 7 Sudoeste 16 Oeste 0 -- -- 32
2019-07-24 23:00:00 27.4 4 Sudoeste 9 Sudoeste 0 -- -- 31
2019-07-24 22:00:00 30.3 4 Sudoeste 19 Sudoeste 0 -- -- 27
2019-07-24 21:00:00 33.7 14 Sur 30 Sudoeste 0 -- -- 22
2019-07-24 20:00:00 35.6 15 Sur 31 Sur 0 -- -- 19
2019-07-24 19:00:00 36.3 15 Sur 34 Sur 0 -- -- 19
2019-07-24 18:00:00 36.5 19 Sur 35 Sur 0 -- -- 19
2019-07-24 17:00:00 36.9 14 Sur 35 Sur 0 -- -- 19
2019-07-24 16:00:00 37 17 Sur 35 Sur 0 -- -- 18
2019-07-24 15:00:00 36 14 Sur 39 Este 0 -- -- 20
2019-07-24 14:00:00 34.8 13 Sudeste 28 Sur 0 -- -- 22
2019-07-24 13:00:00 32 10 Nordeste 21 Nordeste 0 -- -- 29
2019-07-24 12:00:00 29 10 Nordeste 18 Nordeste 0 -- -- 37
2019-07-24 11:00:00 24.9 5 Nordeste 9 Nordeste 0 -- -- 44
2019-07-24 10:00:00 24.3 3 Norte 10 Oeste 0 -- -- 46
2019-07-24 09:00:00 22.3 6 Sudoeste 8 Sudoeste 0 -- -- 50
2019-07-24 08:00:00 20.3 2 Sur 10 Sudoeste 0 -- -- 56
2019-07-24 07:00:00 19.8 7 Sudoeste 16 Oeste 0 -- -- 56
2019-07-24 06:00:00 19.6 6 Sudoeste 16 Sudoeste 0 -- -- 56
2019-07-24 05:00:00 20.3 11 Sudoeste 22 Oeste 0 -- -- 54
2019-07-24 04:00:00 21.4 12 Oeste 17 Oeste -- -- -- 51
2019-07-24 03:00:00 22.4 6 Oeste 11 Oeste 0 -- -- 48
2019-07-24 02:00:00 21.8 9 Sudoeste 12 Oeste 0 -- -- 51
2019-07-24 01:00:00 23.2 6 Sur 14 Sur 0 -- -- 45
2019-07-24 00:00:00 26.2 4 Sur 20 Sudoeste 0 -- -- 37
2019-07-23 23:00:00 27.7 14 Sudoeste 51 Sur 0 -- -- 34
2019-07-23 22:00:00 30.3 4 Norte 30 Este 0 -- -- 27
2019-07-23 21:00:00 31.8 17 Nordeste 30 Nordeste 0 -- -- 24
2019-07-23 20:00:00 33.8 18 Nordeste 45 Este 0 -- -- 22
2019-07-23 19:00:00 35.6 17 Este 41 Este 0 -- -- 17
2019-07-23 18:00:00 36.3 17 Sur 40 Sur 0 -- -- 19
2019-07-23 17:00:00 37.5 17 Sur 32 Sudeste 0 -- -- 19
2019-07-23 16:00:00 36.6 15 Sudeste 31 Sur 0 -- -- 20
2019-07-23 15:00:00 35.1 8 Este 27 Nordeste 0 -- -- 21
2019-07-23 14:00:00 33.7 13 Nordeste 27 Nordeste 0 -- -- 23
2019-07-23 13:00:00 32.4 8 Nordeste 15 Norte 0 -- -- 24
2019-07-23 12:00:00 30.5 5 Nordeste 14 Nordeste 0 -- -- 27
2019-07-23 11:00:00 27.4 6 Nordeste 16 Este 0 -- -- 34
2019-07-23 10:00:00 25.2 9 Nordeste 15 Nordeste 0 -- -- 39
2019-07-23 09:00:00 22.8 8 Sudoeste 22 Sudoeste 0 -- -- 43
2019-07-23 08:00:00 18.5 12 Sudoeste 21 Sudoeste 0 -- -- 55
2019-07-23 07:00:00 -- -- -- -- -- -- -- -- --
2019-07-23 06:00:00 -- -- -- -- -- -- -- -- --
2019-07-23 05:00:00 -- -- -- -- -- -- -- -- --
2019-07-23 04:00:00 -- -- -- -- -- -- -- -- --
2019-07-23 03:00:00 -- -- -- -- -- -- -- -- --
2019-07-23 02:00:00 -- -- -- -- -- -- -- -- --
2019-07-23 01:00:00 -- -- -- -- -- -- -- -- --
2019-07-23 00:00:00 -- -- -- -- -- -- -- -- --
2019-07-22 23:00:00 -- -- -- -- -- -- -- -- --
2019-07-22 22:00:00 -- -- -- -- -- -- -- -- --
2019-07-22 21:00:00 -- -- -- -- -- -- -- -- --
2019-07-22 20:00:00 -- -- -- -- -- -- -- -- --
2019-07-22 19:00:00 -- -- -- -- -- -- -- -- --
2019-07-22 18:00:00 -- -- -- -- -- -- -- -- --
2019-07-22 17:00:00 -- -- -- -- -- -- -- -- --
2019-07-22 16:00:00 -- -- -- -- -- -- -- -- --
2019-07-22 15:00:00 -- -- -- -- -- -- -- -- --
2019-07-22 14:00:00 -- -- -- -- -- -- -- -- --
2019-07-22 13:00:00 -- -- -- -- -- -- -- -- --
2019-07-22 12:00:00 -- -- -- -- -- -- -- -- --
2019-07-22 11:00:00 -- -- -- -- -- -- -- -- --
2019-07-22 10:00:00 -- -- -- -- -- -- -- -- --
2019-07-22 09:00:00 -- -- -- -- -- -- -- -- --
2019-07-22 08:00:00 -- -- -- -- -- -- -- -- --
2019-07-22 07:00:00 -- -- -- -- -- -- -- -- --
2019-07-22 06:00:00 -- -- -- -- -- -- -- -- --
2019-07-22 05:00:00 -- -- -- -- -- -- -- -- --
2019-07-22 04:00:00 -- -- -- -- -- -- -- -- --
2019-07-22 03:00:00 -- -- -- -- -- -- -- -- --
2019-07-22 02:00:00 -- -- -- -- -- -- -- -- --
2019-07-22 01:00:00 -- -- -- -- -- -- -- -- --
2019-07-22 00:00:00 -- -- -- -- -- -- -- -- --
2019-07-21 23:00:00 -- -- -- -- -- -- -- -- --
2019-07-21 22:00:00 -- -- -- -- -- -- -- -- --
2019-07-21 21:00:00 -- -- -- -- -- -- -- -- --
2019-07-21 20:00:00 -- -- -- -- -- -- -- -- --
2019-07-21 19:00:00 -- -- -- -- -- -- -- -- --
2019-07-21 18:00:00 -- -- -- -- -- -- -- -- --
2019-07-21 17:00:00 -- -- -- -- -- -- -- -- --
2019-07-21 16:00:00 -- -- -- -- -- -- -- -- --
2019-07-21 15:00:00 -- -- -- -- -- -- -- -- --
2019-07-21 14:00:00 32.1 11 Nordeste 23 Nordeste 0 -- -- 35
2019-07-21 13:00:00 30.1 8 Nordeste 16 Nordeste 0 -- -- 38
2019-07-21 12:00:00 28.2 8 Nordeste 18 Nordeste 0 -- -- 42
2019-07-21 11:00:00 25.9 9 Nordeste 16 Nordeste 0 -- -- 49
2019-07-21 10:00:00 23.7 7 Nordeste 13 Este 0 -- -- 54
2019-07-21 09:00:00 21.7 8 Nordeste 15 Nordeste 0 -- -- 64
2019-07-21 08:00:00 18.7 0 Calma 4 Sur 0 -- -- 73
2019-07-21 07:00:00 18.4 0 Calma 5 Sudoeste 0 -- -- 72
2019-07-21 06:00:00 19.3 0 Calma 3 Sudoeste 0 -- -- 69
2019-07-21 05:00:00 20.8 2 Sudoeste 4 Norte 0 -- -- 63
2019-07-21 04:00:00 22.8 2 Nordeste 19 Nordeste 0 -- -- 60
2019-07-21 03:00:00 23.9 11 Nordeste 19 Nordeste 0 -- -- 58
2019-07-21 02:00:00 25.3 9 Nordeste 20 Nordeste 0 -- -- 53
2019-07-21 01:00:00 26.9 7 Norte 18 Nordeste 0 -- -- 46
2019-07-21 00:00:00 28.1 10 Nordeste 23 Nordeste 0 -- -- 44